Destin, FL

11:07 AM CST on January 18, 2017 (GMT -0600)
West Destin | | Change Station
Active Advisory: Marine Fog Advisory

Elev 33 ft 30.40 °N, 86.50 °W | Updated 0 second ago

Fog
Fog
71.2 °F
Feels Like 71.2 °F
N
0.2
Wind Variable Wind from ESE
Gusts 2.5 mph

Today
High -- | Low -- °F
--% Chance of Precip.
Yesterday
High -- | Low -- °F
Precip. -- in
Pressure 30.19 in
Visibility 0.2 miles
Clouds
Dew Point 70 °F
Humidity 97%
Rainfall 0.00 in
Snow Depth Not available.
6:42 AM 5:10 PM
Waning Gibbous, 62% visible
METAR KDTS 181653Z AUTO 06003KT 1/4SM FG VV002 20/19 A3019 RMK AO2 SLP224 T02000194
Pressure 30.19 in
Visibility 0.2 miles
Clouds
Dew Point 70 °F
Humidity 97%
Rainfall 0.00 in
Snow Depth Not available.
6:42 AM 5:10 PM
Waning Gibbous, 62% visible
METAR KDTS 181653Z AUTO 06003KT 1/4SM FG VV002 20/19 A3019 RMK AO2 SLP224 T02000194

Get Your Daily Forecast Email!

Thanks for signing up!

Be on the lookout for a verification email in your inbox.

You'll start receiving the daily forecast at 8 AM.

×

10-Day Weather Forecast

Almanac

Astronomy

Jan. 18, 2017 Rise Set
Actual Time
Civil Twilight
Nautical Twilight
Astronomical Twilight
Moon
Length of Visible Light
Length of Day
Tomorrow will be .
, % of the Moon is Illuminated

Today's Extremes

State Highs State Lows

Community

WunderPhotos

Upload Photos

1,962,540 photos uploaded!

WunderBlog® & News

Nearby

Air Quality

  Air Quality AQ Index Pollutant
Not available.

Snow Depth

Station Depth Elevation

Earthquake Activity

City Distance Mag. Time & Date
Minimum magnitude displayed is 2.5.

Coastal Water Temperatures

Place Temperature

Stations

Nearby Weather Stations

Station Location Temp. Windchill Dew Point Humidity Wind Precip. Elev Updated Type
                   

Watches & Warnings

Marine Fog Advisory
Issued: 9:41 AM CST Jan. 18, 2017 – National Weather Service

... Dense fog advisory now in effect until noon CST today...

* visibility... 1 mile or less.

Precautionary/preparedness actions...

A dense fog advisory means visibilities will frequently be
reduced to less than one mile. Inexperienced mariners...
especially those operating smaller vessels should avoid
navigating in these conditions.